Shionomisaki, Japan

1:43 PM JST on October 23, 2014 (GMT +0900)
Nanki-Shirahama | Change Station
CLOSE
Current Station
Airport
Location: Nankishirahama,
Elevation: 302 ft
Nearby Weather Stations

Elev 302 ft 33.66 °N, 135.36 °E | Updated 43 minutes ago

Mostly Cloudy
Mostly Cloudy
68 °F
Feels Like 68 °F
N
8
Wind Variable Wind from NNW

Today
High -- | Low -- °F
--% Chance of Precip.
Yesterday
High -- | Low -- °F
Precip. -- in
6:07 AM 5:14 PM
Waning Crescent, 1% visible
Pressure 29.98 in
Visibility 6.2 miles
Clouds Few 1500 ft
Scattered Clouds 3500 ft
Mostly Cloudy 4500 ft
Dew Point 54 °F
Humidity 60%
Rainfall 0.00 in
Snow Depth Not available.
UV 3 out of 12
Pollen Not available.
Air Quality Not available.
Flu Activity Not available.
METAR RJBD 230400Z 34007KT 310V020 9999 FEW015 SCT035 BKN045 20/12 Q1015

More Conditions Fewer Conditions

Pressure 29.98 in
Visibility 6.2 miles
Clouds Few 1500 ft
Scattered Clouds 3500 ft
Mostly Cloudy 4500 ft
Dew Point 54 °F
Humidity 60%
Rainfall 0.00 in
Snow Depth Not available.
UV 3 out of 12
Pollen Not available.
Air Quality Not available.
Flu Activity Not available.
METAR RJBD 230400Z 34007KT 310V020 9999 FEW015 SCT035 BKN045 20/12 Q1015

More Conditions Fewer Conditions

10-Day Weather Forecast

Almanac

Astronomy

Oct. 23, 2014 Rise Set
Actual Time 6:07 AM JST 5:14 PM JST
Civil Twilight 5:42 AM JST 5:39 PM JST
Nautical Twilight 5:13 AM JST 6:08 PM JST
Astronomical Twilight 4:44 AM JST 6:37 PM JST
Moon 5:13 AM JST 4:52 PM JST
Length of Visible Light 11h 57m
Length of Day
11h 07m
Tomorrow will be 1m 55s shorter.
Waning Crescent, 1% of the Moon is Illuminated
Today
Waning Crescent
Oct 23
New
Oct 30
First Quarter
Nov 6
Full
Nov 14
Last Quarter

Yesterday's Extremes

Country Highs Country Lows

Community

WunderPhotos

Upload Photos

1,764,154 photos uploaded!

Nearby

Snow Depth

Not available.

Earthquake Activity

City Distance Mag. Time & Date
No recent earthquake activity has been reported nearby.
Minimum magnitude displayed is 2.5.

Coastal Water Temperatures

Place Temperature
No Stations Reporting

Nearby Weather Stations